sensor_id;sensor_type;location;lat;lon;timestamp;pressure;altitude;pressure_sealevel;temperature;humidity
24825;BME280;12910;57.690;11.974;2022-12-29T00:01:25;98942.59;;;4.36;100.00
24825;BME280;12910;57.690;11.974;2022-12-29T00:03:50;98950.28;;;4.41;100.00
24825;BME280;12910;57.690;11.974;2022-12-29T00:06:16;98931.66;;;4.39;100.00
24825;BME280;12910;57.690;11.974;2022-12-29T00:08:41;98924.03;;;4.38;100.00
24825;BME280;12910;57.690;11.974;2022-12-29T00:11:25;98928.31;;;4.43;100.00
24825;BME280;12910;57.690;11.974;2022-12-29T00:13:53;98924.03;;;4.41;100.00
24825;BME280;12910;57.690;11.974;2022-12-29T00:16:43;98918.16;;;4.42;100.00
24825;BME280;12910;57.690;11.974;2022-12-29T00:19:09;98909.63;;;4.36;100.00
24825;BME280;12910;57.690;11.974;2022-12-29T00:21:56;98914.78;;;4.43;100.00
24825;BME280;12910;57.690;11.974;2022-12-29T00:24:41;98907.16;;;4.43;100.00
24825;BME280;12910;57.690;11.974;2022-12-29T00:27:25;98905.50;;;4.45;100.00
24825;BME280;12910;57.690;11.974;2022-12-29T00:30:11;98905.53;;;4.48;100.00
24825;BME280;12910;57.690;11.974;2022-12-29T00:32:56;98897.06;;;4.46;100.00
24825;BME280;12910;57.690;11.974;2022-12-29T00:38:49;98899.63;;;4.47;100.00
24825;BME280;12910;57.690;11.974;2022-12-29T00:41:34;98892.84;;;4.45;100.00
24825;BME280;12910;57.690;11.974;2022-12-29T00:44:18;98900.47;;;4.48;100.00
24825;BME280;12910;57.690;11.974;2022-12-29T00:46:44;98899.69;;;4.52;100.00
24825;BME280;12910;57.690;11.974;2022-12-29T00:49:12;98891.19;;;4.50;100.00
24825;BME280;12910;57.690;11.974;2022-12-29T00:52:01;98885.28;;;4.51;100.00
24825;BME280;12910;57.690;11.974;2022-12-29T00:54:35;98881.09;;;4.55;100.00
24825;BME280;12910;57.690;11.974;2022-12-29T00:57:02;98870.88;;;4.48;100.00
24825;BME280;12910;57.690;11.974;2022-12-29T00:59:28;98873.53;;;4.56;100.00
24825;BME280;12910;57.690;11.974;2022-12-29T01:01:54;98871.84;;;4.58;100.00
24825;BME280;12910;57.690;11.974;2022-12-29T01:04:25;98868.47;;;4.58;100.00
24825;BME280;12910;57.690;11.974;2022-12-29T01:06:52;98859.19;;;4.60;100.00
24825;BME280;12910;57.690;11.974;2022-12-29T01:09:18;98854.13;;;4.60;100.00
24825;BME280;12910;57.690;11.974;2022-12-29T01:12:03;98852.47;;;4.63;100.00
24825;BME280;12910;57.690;11.974;2022-12-29T01:14:29;98841.44;;;4.61;100.00
24825;BME280;12910;57.690;11.974;2022-12-29T01:16:55;98834.69;;;4.63;100.00
24825;BME280;12910;57.690;11.974;2022-12-29T01:19:22;98839.84;;;4.70;100.00
24825;BME280;12910;57.690;11.974;2022-12-29T01:21:48;98825.44;;;4.68;100.00
24825;BME280;12910;57.690;11.974;2022-12-29T01:24:18;98830.59;;;4.75;100.00
24825;BME280;12910;57.690;11.974;2022-12-29T01:26:44;98833.16;;;4.78;100.00
24825;BME280;12910;57.690;11.974;2022-12-29T01:29:09;98811.19;;;4.81;100.00
24825;BME280;12910;57.690;11.974;2022-12-29T01:31:35;98815.44;;;4.82;100.00
24825;BME280;12910;57.690;11.974;2022-12-29T01:34:01;98807.03;;;4.87;100.00
24825;BME280;12910;57.690;11.974;2022-12-29T01:36:26;98806.19;;;4.89;100.00
24825;BME280;12910;57.690;11.974;2022-12-29T01:38:52;98805.38;;;4.92;100.00
24825;BME280;12910;57.690;11.974;2022-12-29T01:41:17;98802.03;;;4.94;100.00
24825;BME280;12910;57.690;11.974;2022-12-29T01:43:48;98794.41;;;4.96;100.00
24825;BME280;12910;57.690;11.974;2022-12-29T01:49:35;98786.84;;;4.99;100.00
24825;BME280;12910;57.690;11.974;2022-12-29T01:51:48;98774.97;;;4.99;100.00
24825;BME280;12910;57.690;11.974;2022-12-29T01:54:26;98769.94;;;5.03;100.00
24825;BME280;12910;57.690;11.974;2022-12-29T01:56:55;98769.94;;;5.06;100.00
24825;BME280;12910;57.690;11.974;2022-12-29T01:59:26;98753.88;;;5.04;100.00
24825;BME280;12910;57.690;11.974;2022-12-29T02:01:53;98751.31;;;5.02;100.00
24825;BME280;12910;57.690;11.974;2022-12-29T02:04:19;98753.88;;;5.07;100.00
24825;BME280;12910;57.690;11.974;2022-12-29T02:06:57;98748.84;;;5.10;100.00
24825;BME280;12910;57.690;11.974;2022-12-29T02:09:24;98739.50;;;5.09;100.00
24825;BME280;12910;57.690;11.974;2022-12-29T02:11:51;98740.38;;;5.11;100.00
24825;BME280;12910;57.690;11.974;2022-12-29T02:14:17;98738.69;;;5.11;100.00
24825;BME280;12910;57.690;11.974;2022-12-29T02:35:37;98672.63;;;5.07;100.00
24825;BME280;12910;57.690;11.974;2022-12-29T02:49:12;98656.59;;;5.09;100.00
24825;BME280;12910;57.690;11.974;2022-12-29T02:51:58;98653.19;;;5.07;100.00
24825;BME280;12910;57.690;11.974;2022-12-29T02:54:26;98654.88;;;5.08;100.00
24825;BME280;12910;57.690;11.974;2022-12-29T02:57:27;98653.19;;;5.09;100.00
24825;BME280;12910;57.690;11.974;2022-12-29T03:00:14;98644.72;;;5.10;100.00
24825;BME280;12910;57.690;11.974;2022-12-29T03:03:06;98634.59;;;5.08;100.00
24825;BME280;12910;57.690;11.974;2022-12-29T03:05:59;98632.03;;;5.10;100.00
24825;BME280;12910;57.690;11.974;2022-12-29T03:08:49;98615.06;;;5.06;100.00
24825;BME280;12910;57.690;11.974;2022-12-29T03:11:19;98611.72;;;5.10;100.00
24825;BME280;12910;57.690;11.974;2022-12-29T03:17:22;98591.38;;;5.04;100.00
24825;BME280;12910;57.690;11.974;2022-12-29T03:19:52;98592.28;;;5.12;100.00
24825;BME280;12910;57.690;11.974;2022-12-29T03:22:25;98599.06;;;5.14;100.00
24825;BME280;12910;57.690;11.974;2022-12-29T03:25:00;98588.03;;;5.09;100.00
24825;BME280;12910;57.690;11.974;2022-12-29T03:27:30;98590.59;;;5.15;100.00
24825;BME280;12910;57.690;11.974;2022-12-29T03:30:00;98585.50;;;5.17;100.00
24825;BME280;12910;57.690;11.974;2022-12-29T03:32:51;98579.56;;;5.15;100.00
24825;BME280;12910;57.690;11.974;2022-12-29T03:35:17;98577.06;;;5.18;100.00
24825;BME280;12910;57.690;11.974;2022-12-29T03:38:15;98578.75;;;5.19;100.00
24825;BME280;12910;57.690;11.974;2022-12-29T03:40:44;98569.44;;;5.17;100.00
24825;BME280;12910;57.690;11.974;2022-12-29T03:43:12;98567.75;;;5.17;100.00
24825;BME280;12910;57.690;11.974;2022-12-29T03:45:38;98566.91;;;5.20;100.00
24825;BME280;12910;57.690;11.974;2022-12-29T03:48:04;98550.84;;;5.19;100.00
24825;BME280;12910;57.690;11.974;2022-12-29T03:50:29;98547.47;;;5.19;100.00
24825;BME280;12910;57.690;11.974;2022-12-29T03:52:55;98547.44;;;5.17;100.00
24825;BME280;12910;57.690;11.974;2022-12-29T03:55:20;98547.44;;;5.22;100.00
24825;BME280;12910;57.690;11.974;2022-12-29T03:57:45;98539.84;;;5.20;100.00
24825;BME280;12910;57.690;11.974;2022-12-29T04:00:11;98536.44;;;5.20;100.00
24825;BME280;12910;57.690;11.974;2022-12-29T04:02:37;98534.75;;;5.19;100.00
24825;BME280;12910;57.690;11.974;2022-12-29T04:05:02;98532.22;;;5.20;100.00
24825;BME280;12910;57.690;11.974;2022-12-29T04:07:28;98523.75;;;5.18;100.00
24825;BME280;12910;57.690;11.974;2022-12-29T04:09:53;98524.59;;;5.20;100.00
24825;BME280;12910;57.690;11.974;2022-12-29T04:12:18;98516.97;;;5.19;100.00
24825;BME280;12910;57.690;11.974;2022-12-29T04:14:44;98506.78;;;5.12;100.00
24825;BME280;12910;57.690;11.974;2022-12-29T04:17:09;98511.03;;;5.18;100.00
24825;BME280;12910;57.690;11.974;2022-12-29T04:19:34;98507.66;;;5.18;100.00
24825;BME280;12910;57.690;11.974;2022-12-29T04:22:00;98495.78;;;5.15;100.00
24825;BME280;12910;57.690;11.974;2022-12-29T04:24:25;98494.97;;;5.18;100.00
24825;BME280;12910;57.690;11.974;2022-12-29T04:26:51;98494.97;;;5.18;100.00
24825;BME280;12910;57.690;11.974;2022-12-29T04:29:16;98487.34;;;5.13;100.00
24825;BME280;12910;57.690;11.974;2022-12-29T04:31:41;98489.88;;;5.19;100.00
24825;BME280;12910;57.690;11.974;2022-12-29T04:34:07;98471.25;;;5.14;100.00
24825;BME280;12910;57.690;11.974;2022-12-29T04:36:32;98472.09;;;5.13;100.00
24825;BME280;12910;57.690;11.974;2022-12-29T04:38:58;98464.47;;;5.16;100.00
24825;BME280;12910;57.690;11.974;2022-12-29T04:41:23;98478.03;;;5.17;100.00
24825;BME280;12910;57.690;11.974;2022-12-29T04:43:49;98471.25;;;5.17;100.00
24825;BME280;12910;57.690;11.974;2022-12-29T04:46:14;98469.56;;;5.19;100.00
24825;BME280;12910;57.690;11.974;2022-12-29T04:48:40;98467.03;;;5.14;100.00
24825;BME280;12910;57.690;11.974;2022-12-29T04:51:05;98470.41;;;5.17;100.00
24825;BME280;12910;57.690;11.974;2022-12-29T04:53:30;98466.19;;;5.20;100.00
24825;BME280;12910;57.690;11.974;2022-12-29T04:55:55;98472.09;;;5.19;100.00
24825;BME280;12910;57.690;11.974;2022-12-29T04:58:21;98472.13;;;5.22;100.00
24825;BME280;12910;57.690;11.974;2022-12-29T05:00:47;98464.50;;;5.22;100.00
24825;BME280;12910;57.690;11.974;2022-12-29T05:03:12;98465.34;;;5.23;100.00
24825;BME280;12910;57.690;11.974;2022-12-29T05:05:38;98460.25;;;5.24;100.00
24825;BME280;12910;57.690;11.974;2022-12-29T05:08:03;98446.72;;;5.24;100.00
24825;BME280;12910;57.690;11.974;2022-12-29T05:10:29;98452.66;;;5.24;100.00
24825;BME280;12910;57.690;11.974;2022-12-29T05:12:55;98467.91;;;5.30;100.00
24825;BME280;12910;57.690;11.974;2022-12-29T05:15:20;98440.81;;;5.26;100.00
24825;BME280;12910;57.690;11.974;2022-12-29T05:17:46;98454.34;;;5.30;100.00
24825;BME280;12910;57.690;11.974;2022-12-29T05:20:11;98450.97;;;5.29;100.00
24825;BME280;12910;57.690;11.974;2022-12-29T05:22:37;98451.84;;;5.32;100.00
24825;BME280;12910;57.690;11.974;2022-12-29T05:25:03;98451.81;;;5.35;100.00
24825;BME280;12910;57.690;11.974;2022-12-29T05:27:28;98438.28;;;5.34;100.00
24825;BME280;12910;57.690;11.974;2022-12-29T05:29:53;98439.13;;;5.38;100.00
24825;BME280;12910;57.690;11.974;2022-12-29T05:32:19;98442.53;;;5.38;100.00
24825;BME280;12910;57.690;11.974;2022-12-29T05:34:44;98443.38;;;5.42;100.00
24825;BME280;12910;57.690;11.974;2022-12-29T05:37:10;98436.59;;;5.42;100.00
24825;BME280;12910;57.690;11.974;2022-12-29T05:39:35;98430.66;;;5.40;100.00
24825;BME280;12910;57.690;11.974;2022-12-29T05:42:00;98429.00;;;5.41;100.00
24825;BME280;12910;57.690;11.974;2022-12-29T05:44:26;98427.31;;;5.43;100.00
24825;BME280;12910;57.690;11.974;2022-12-29T05:46:51;98422.22;;;5.43;100.00
24825;BME280;12910;57.690;11.974;2022-12-29T05:49:17;98427.31;;;5.49;100.00
24825;BME280;12910;57.690;11.974;2022-12-29T05:51:43;98426.47;;;5.45;100.00
24825;BME280;12910;57.690;11.974;2022-12-29T05:54:08;98421.34;;;5.49;100.00
24825;BME280;12910;57.690;11.974;2022-12-29T05:56:33;98426.44;;;5.52;100.00
24825;BME280;12910;57.690;11.974;2022-12-29T05:58:59;98420.53;;;5.54;100.00
24825;BME280;12910;57.690;11.974;2022-12-29T06:01:24;98426.44;;;5.58;100.00
24825;BME280;12910;57.690;11.974;2022-12-29T06:03:49;98410.34;;;5.59;100.00
24825;BME280;12910;57.690;11.974;2022-12-29T06:06:15;98425.63;;;5.62;100.00
24825;BME280;12910;57.690;11.974;2022-12-29T06:08:41;98420.53;;;5.64;100.00
24825;BME280;12910;57.690;11.974;2022-12-29T06:11:06;98398.50;;;5.66;100.00
24825;BME280;12910;57.690;11.974;2022-12-29T06:13:32;98402.75;;;5.68;100.00
24825;BME280;12910;57.690;11.974;2022-12-29T06:15:57;98382.44;;;5.70;100.00
24825;BME280;12910;57.690;11.974;2022-12-29T06:18:22;98398.50;;;5.75;100.00
24825;BME280;12910;57.690;11.974;2022-12-29T06:20:48;98394.28;;;5.80;100.00
24825;BME280;12910;57.690;11.974;2022-12-29T06:23:13;98378.16;;;5.75;100.00
24825;BME280;12910;57.690;11.974;2022-12-29T06:25:39;98369.72;;;5.79;100.00
24825;BME280;12910;57.690;11.974;2022-12-29T06:28:04;98369.69;;;5.85;100.00
24825;BME280;12910;57.690;11.974;2022-12-29T06:30:30;98379.03;;;5.89;100.00
24825;BME280;12910;57.690;11.974;2022-12-29T06:32:56;98383.25;;;5.90;100.00
24825;BME280;12910;57.690;11.974;2022-12-29T06:35:22;98372.25;;;5.88;100.00
24825;BME280;12910;57.690;11.974;2022-12-29T06:37:48;98370.53;;;5.87;100.00
24825;BME280;12910;57.690;11.974;2022-12-29T06:40:14;98360.38;;;5.86;100.00
24825;BME280;12910;57.690;11.974;2022-12-29T06:42:39;98364.63;;;5.88;100.00
24825;BME280;12910;57.690;11.974;2022-12-29T06:45:06;98362.06;;;5.88;100.00
24825;BME280;12910;57.690;11.974;2022-12-29T06:47:32;98365.44;;;5.89;100.00
24825;BME280;12910;57.690;11.974;2022-12-29T06:49:58;98351.06;;;5.89;100.00
24825;BME280;12910;57.690;11.974;2022-12-29T06:52:23;98353.59;;;5.91;100.00
24825;BME280;12910;57.690;11.974;2022-12-29T06:54:49;98346.78;;;5.95;100.00
24825;BME280;12910;57.690;11.974;2022-12-29T06:57:14;98352.75;;;5.95;100.00
24825;BME280;12910;57.690;11.974;2022-12-29T06:59:40;98335.81;;;5.89;100.00
24825;BME280;12910;57.690;11.974;2022-12-29T07:02:05;98345.94;;;5.97;100.00
24825;BME280;12910;57.690;11.974;2022-12-29T07:04:30;98337.50;;;5.95;100.00
24825;BME280;12910;57.690;11.974;2022-12-29T07:06:56;98333.25;;;5.96;100.00
24825;BME280;12910;57.690;11.974;2022-12-29T07:09:21;98346.84;;;6.01;100.00
24825;BME280;12910;57.690;11.974;2022-12-29T07:11:47;98340.00;;;5.98;100.00
24825;BME280;12910;57.690;11.974;2022-12-29T07:14:12;98332.41;;;5.95;100.00
24825;BME280;12910;57.690;11.974;2022-12-29T07:16:38;98335.78;;;5.96;100.00
24825;BME280;12910;57.690;11.974;2022-12-29T07:19:03;98327.31;;;5.93;100.00
24825;BME280;12910;57.690;11.974;2022-12-29T07:21:29;98331.56;;;5.96;100.00
24825;BME280;12910;57.690;11.974;2022-12-29T07:23:54;98313.75;;;5.95;100.00
24825;BME280;12910;57.690;11.974;2022-12-29T07:26:20;98326.47;;;5.95;100.00
24825;BME280;12910;57.690;11.974;2022-12-29T07:28:45;98312.06;;;5.87;100.00
24825;BME280;12910;57.690;11.974;2022-12-29T07:31:16;98339.19;;;5.91;100.00
24825;BME280;12910;57.690;11.974;2022-12-29T07:33:42;98337.50;;;5.90;100.00
24825;BME280;12910;57.690;11.974;2022-12-29T07:36:11;98338.34;;;5.89;100.00
24825;BME280;12910;57.690;11.974;2022-12-29T07:38:37;98322.25;;;5.84;100.00
24825;BME280;12910;57.690;11.974;2022-12-29T07:41:02;98320.56;;;5.86;100.00
24825;BME280;12910;57.690;11.974;2022-12-29T07:43:28;98315.47;;;5.83;100.00
24825;BME280;12910;57.690;11.974;2022-12-29T07:45:53;98318.84;;;5.82;100.00
24825;BME280;12910;57.690;11.974;2022-12-29T07:48:19;98322.28;;;5.81;100.00
24825;BME280;12910;57.690;11.974;2022-12-29T07:50:44;98320.56;;;5.78;100.00
24825;BME280;12910;57.690;11.974;2022-12-29T07:53:10;98330.72;;;5.82;100.00
24825;BME280;12910;57.690;11.974;2022-12-29T07:55:35;98325.66;;;5.74;100.00
24825;BME280;12910;57.690;11.974;2022-12-29T07:58:00;98307.88;;;5.75;100.00
24825;BME280;12910;57.690;11.974;2022-12-29T08:00:26;98318.88;;;5.74;100.00
24825;BME280;12910;57.690;11.974;2022-12-29T08:02:51;98317.19;;;5.78;100.00
24825;BME280;12910;57.690;11.974;2022-12-29T08:05:17;98319.72;;;5.75;100.00
24825;BME280;12910;57.690;11.974;2022-12-29T08:07:44;98321.41;;;5.79;100.00
24825;BME280;12910;57.690;11.974;2022-12-29T08:10:10;98326.50;;;5.81;100.00
24825;BME280;12910;57.690;11.974;2022-12-29T08:12:37;98318.88;;;5.79;100.00
24825;BME280;12910;57.690;11.974;2022-12-29T08:15:03;98316.34;;;5.79;100.00
24825;BME280;12910;57.690;11.974;2022-12-29T08:17:29;98324.78;;;5.80;100.00
24825;BME280;12910;57.690;11.974;2022-12-29T08:19:54;98323.97;;;5.79;100.00
24825;BME280;12910;57.690;11.974;2022-12-29T08:22:19;98333.28;;;5.77;100.00
24825;BME280;12910;57.690;11.974;2022-12-29T08:24:45;98320.56;;;5.80;100.00
24825;BME280;12910;57.690;11.974;2022-12-29T08:27:10;98313.78;;;5.81;100.00
24825;BME280;12910;57.690;11.974;2022-12-29T08:29:35;98301.97;;;5.72;100.00
24825;BME280;12910;57.690;11.974;2022-12-29T08:32:01;98326.47;;;5.85;100.00
24825;BME280;12910;57.690;11.974;2022-12-29T08:34:26;98334.09;;;5.87;100.00
24825;BME280;12910;57.690;11.974;2022-12-29T08:36:51;98334.97;;;5.90;100.00
24825;BME280;12910;57.690;11.974;2022-12-29T08:39:17;98320.56;;;5.89;100.00
24825;BME280;12910;57.690;11.974;2022-12-29T08:41:42;98329.00;;;5.95;100.00
24825;BME280;12910;57.690;11.974;2022-12-29T08:44:07;98316.31;;;5.88;100.00
24825;BME280;12910;57.690;11.974;2022-12-29T08:46:33;98312.06;;;5.97;100.00
24825;BME280;12910;57.690;11.974;2022-12-29T08:48:58;98297.66;;;5.92;100.00
24825;BME280;12910;57.690;11.974;2022-12-29T08:51:23;98309.50;;;5.98;100.00
24825;BME280;12910;57.690;11.974;2022-12-29T08:53:49;98310.34;;;5.99;100.00
24825;BME280;12910;57.690;11.974;2022-12-29T08:56:15;98306.13;;;6.02;100.00
24825;BME280;12910;57.690;11.974;2022-12-29T08:58:41;98306.97;;;6.03;100.00
24825;BME280;12910;57.690;11.974;2022-12-29T09:01:06;98308.69;;;5.99;100.00
24825;BME280;12910;57.690;11.974;2022-12-29T09:03:32;98315.44;;;6.08;100.00
24825;BME280;12910;57.690;11.974;2022-12-29T09:05:57;98310.38;;;6.08;100.00
24825;BME280;12910;57.690;11.974;2022-12-29T09:08:23;98313.75;;;6.10;100.00
24825;BME280;12910;57.690;11.974;2022-12-29T09:10:49;98316.28;;;6.10;100.00
24825;BME280;12910;57.690;11.974;2022-12-29T09:13:16;98315.44;;;6.08;100.00
24825;BME280;12910;57.690;11.974;2022-12-29T09:15:42;98312.06;;;6.09;100.00
24825;BME280;12910;57.690;11.974;2022-12-29T09:18:09;98307.78;;;6.11;100.00
24825;BME280;12910;57.690;11.974;2022-12-29T09:20:35;98304.41;;;6.12;100.00
24825;BME280;12910;57.690;11.974;2022-12-29T09:23:00;98296.78;;;6.14;100.00
24825;BME280;12910;57.690;11.974;2022-12-29T09:25:27;98305.25;;;6.14;100.00
24825;BME280;12910;57.690;11.974;2022-12-29T09:27:52;98295.91;;;6.18;100.00
24825;BME280;12910;57.690;11.974;2022-12-29T09:30:20;98296.75;;;6.20;100.00
24825;BME280;12910;57.690;11.974;2022-12-29T09:32:46;98303.50;;;6.22;100.00
24825;BME280;12910;57.690;11.974;2022-12-29T09:35:13;98293.34;;;6.22;100.00
24825;BME280;12910;57.690;11.974;2022-12-29T09:37:38;98286.56;;;6.21;100.00
24825;BME280;12910;57.690;11.974;2022-12-29T09:40:05;98299.25;;;6.29;100.00
24825;BME280;12910;57.690;11.974;2022-12-29T09:42:35;98299.22;;;6.34;100.00
24825;BME280;12910;57.690;11.974;2022-12-29T09:45:20;98288.22;;;6.35;100.00
24825;BME280;12910;57.690;11.974;2022-12-29T09:47:52;98284.84;;;6.28;100.00
24825;BME280;12910;57.690;11.974;2022-12-29T09:50:35;98294.16;;;6.31;100.00
24825;BME280;12910;57.690;11.974;2022-12-29T09:55:39;98306.91;;;6.28;100.00
24825;BME280;12910;57.690;11.974;2022-12-29T09:58:13;98302.69;;;6.25;100.00
24825;BME280;12910;57.690;11.974;2022-12-29T10:00:54;98301.81;;;6.21;100.00
24825;BME280;12910;57.690;11.974;2022-12-29T10:03:24;98287.44;;;6.17;100.00
24825;BME280;12910;57.690;11.974;2022-12-29T10:06:15;98288.28;;;6.19;100.00
24825;BME280;12910;57.690;11.974;2022-12-29T10:25:19;98323.03;;;6.16;100.00
24825;BME280;12910;57.690;11.974;2022-12-29T10:27:48;98311.19;;;6.12;100.00
24825;BME280;12910;57.690;11.974;2022-12-29T10:30:14;98310.38;;;6.08;100.00
24825;BME280;12910;57.690;11.974;2022-12-29T10:32:46;98321.38;;;6.04;100.00
24825;BME280;12910;57.690;11.974;2022-12-29T10:35:20;98308.69;;;6.02;100.00
24825;BME280;12910;57.690;11.974;2022-12-29T10:37:57;98301.88;;;6.06;100.00
24825;BME280;12910;57.690;11.974;2022-12-29T10:42:55;98294.22;;;6.15;100.00
24825;BME280;12910;57.690;11.974;2022-12-29T10:45:24;98303.53;;;6.18;100.00
24825;BME280;12910;57.690;11.974;2022-12-29T10:50:22;98301.84;;;6.18;100.00
24825;BME280;12910;57.690;11.974;2022-12-29T10:52:49;98290.84;;;6.15;100.00
24825;BME280;12910;57.690;11.974;2022-12-29T10:55:19;98296.72;;;6.21;100.00
24825;BME280;12910;57.690;11.974;2022-12-29T10:57:47;98297.59;;;6.20;100.00
24825;BME280;12910;57.690;11.974;2022-12-29T11:00:15;98293.38;;;6.16;100.00
24825;BME280;12910;57.690;11.974;2022-12-29T11:08:35;98291.69;;;6.12;100.00
24825;BME280;12910;57.690;11.974;2022-12-29T11:11:03;98288.28;;;6.16;100.00
24825;BME280;12910;57.690;11.974;2022-12-29T11:13:31;98291.69;;;6.18;100.00
24825;BME280;12910;57.690;11.974;2022-12-29T11:15:56;98282.34;;;6.19;100.00
24825;BME280;12910;57.690;11.974;2022-12-29T11:18:23;98288.28;;;6.21;100.00
24825;BME280;12910;57.690;11.974;2022-12-29T11:20:54;98287.44;;;6.17;100.00
24825;BME280;12910;57.690;11.974;2022-12-29T11:23:33;98283.16;;;6.22;100.00
24825;BME280;12910;57.690;11.974;2022-12-29T11:28:38;98271.28;;;6.28;100.00
24825;BME280;12910;57.690;11.974;2022-12-29T11:31:05;98280.59;;;6.30;100.00
24825;BME280;12910;57.690;11.974;2022-12-29T11:33:31;98281.44;;;6.31;100.00
24825;BME280;12910;57.690;11.974;2022-12-29T11:36:01;98283.13;;;6.35;100.00
24825;BME280;12910;57.690;11.974;2022-12-29T11:38:42;98274.66;;;6.31;100.00
24825;BME280;12910;57.690;11.974;2022-12-29T11:41:12;98278.91;;;6.29;100.00
24825;BME280;12910;57.690;11.974;2022-12-29T11:43:43;98284.00;;;6.28;100.00
24825;BME280;12910;57.690;11.974;2022-12-29T11:46:40;98276.38;;;6.28;100.00
24825;BME280;12910;57.690;11.974;2022-12-29T11:49:13;98271.25;;;6.31;100.00
24825;BME280;12910;57.690;11.974;2022-12-29T11:51:45;98267.03;;;6.28;100.00
24825;BME280;12910;57.690;11.974;2022-12-29T11:54:18;98273.81;;;6.31;100.00
24825;BME280;12910;57.690;11.974;2022-12-29T11:56:46;98278.94;;;6.28;100.00
24825;BME280;12910;57.690;11.974;2022-12-29T12:00:18;98263.66;;;6.26;100.00
24825;BME280;12910;57.690;11.974;2022-12-29T12:02:42;98271.31;;;6.23;100.00
24825;BME280;12910;57.690;11.974;2022-12-29T12:05:18;98269.59;;;6.27;100.00
24825;BME280;12910;57.690;11.974;2022-12-29T12:07:59;98267.91;;;6.26;100.00
24825;BME280;12910;57.690;11.974;2022-12-29T12:10:41;98274.69;;;6.23;100.00
24825;BME280;12910;57.690;11.974;2022-12-29T12:13:33;98278.09;;;6.22;100.00
24825;BME280;12910;57.690;11.974;2022-12-29T12:16:07;98275.56;;;6.21;100.00
24825;BME280;12910;57.690;11.974;2022-12-29T12:18:40;98267.09;;;6.17;100.00
24825;BME280;12910;57.690;11.974;2022-12-29T12:21:30;98281.50;;;6.20;100.00
24825;BME280;12910;57.690;11.974;2022-12-29T12:24:11;98273.03;;;6.19;100.00
24825;BME280;12910;57.690;11.974;2022-12-29T12:27:01;98284.03;;;6.23;100.00
24825;BME280;12910;57.690;11.974;2022-12-29T12:54:29;98285.69;;;6.30;100.00
24825;BME280;12910;57.690;11.974;2022-12-29T13:00:13;98284.84;;;6.30;100.00
24825;BME280;12910;57.690;11.974;2022-12-29T13:05:25;98282.34;;;6.25;100.00
24825;BME280;12910;57.690;11.974;2022-12-29T13:10:45;98289.97;;;6.25;100.00
24825;BME280;12910;57.690;11.974;2022-12-29T13:16:08;98296.72;;;6.28;100.00
24825;BME280;12910;57.690;11.974;2022-12-29T13:24:23;98295.03;;;6.23;100.00
24825;BME280;12910;57.690;11.974;2022-12-29T13:26:54;98295.88;;;6.22;100.00
24825;BME280;12910;57.690;11.974;2022-12-29T13:29:32;98292.50;;;6.22;100.00
24825;BME280;12910;57.690;11.974;2022-12-29T13:32:32;98297.56;;;6.23;100.00
24825;BME280;12910;57.690;11.974;2022-12-29T13:35:21;98278.97;;;6.15;100.00
24825;BME280;12910;57.690;11.974;2022-12-29T13:37:58;98298.44;;;6.22;100.00
24825;BME280;12910;57.690;11.974;2022-12-29T13:40:30;98290.78;;;6.22;100.00
24825;BME280;12910;57.690;11.974;2022-12-29T13:42:59;98308.59;;;6.22;100.00
24825;BME280;12910;57.690;11.974;2022-12-29T13:45:29;98299.28;;;6.20;100.00
24825;BME280;12910;57.690;11.974;2022-12-29T13:48:02;98306.06;;;6.21;100.00
24825;BME280;12910;57.690;11.974;2022-12-29T13:50:35;98305.25;;;6.17;100.00
24825;BME280;12910;57.690;11.974;2022-12-29T13:55:47;98323.88;;;6.18;100.00
24825;BME280;12910;57.690;11.974;2022-12-29T14:03:55;98343.41;;;6.05;100.00
24825;BME280;12910;57.690;11.974;2022-12-29T14:09:00;98334.09;;;5.95;100.00
24825;BME280;12910;57.690;11.974;2022-12-29T14:11:43;98335.81;;;5.89;100.00
24825;BME280;12910;57.690;11.974;2022-12-29T14:14:19;98333.28;;;5.80;100.00
24825;BME280;12910;57.690;11.974;2022-12-29T14:16:46;98352.75;;;5.84;100.00
24825;BME280;12910;57.690;11.974;2022-12-29T14:19:23;98356.13;;;5.83;100.00
24825;BME280;12910;57.690;11.974;2022-12-29T14:22:03;98334.13;;;5.81;100.00
24825;BME280;12910;57.690;11.974;2022-12-29T14:34:50;98356.16;;;5.71;100.00
24825;BME280;12910;57.690;11.974;2022-12-29T14:37:31;98361.25;;;5.71;100.00
24825;BME280;12910;57.690;11.974;2022-12-29T14:40:14;98359.53;;;5.68;100.00
24825;BME280;12910;57.690;11.974;2022-12-29T14:42:43;98368.03;;;5.64;100.00
24825;BME280;12910;57.690;11.974;2022-12-29T14:52:50;98369.72;;;5.59;100.00
24825;BME280;12910;57.690;11.974;2022-12-29T14:58:02;98380.72;;;5.58;100.00
24825;BME280;12910;57.690;11.974;2022-12-29T15:00:31;98386.66;;;5.57;100.00
24825;BME280;12910;57.690;11.974;2022-12-29T15:03:04;98392.59;;;5.57;100.00
24825;BME280;12910;57.690;11.974;2022-12-29T15:05:44;98381.56;;;5.55;100.00
24825;BME280;12910;57.690;11.974;2022-12-29T15:08:13;98393.41;;;5.53;100.00
24825;BME280;12910;57.690;11.974;2022-12-29T15:10:47;98395.97;;;5.52;100.00
24825;BME280;12910;57.690;11.974;2022-12-29T15:13:21;98405.28;;;5.51;100.00
24825;BME280;12910;57.690;11.974;2022-12-29T15:15:47;98395.97;;;5.47;100.00
24825;BME280;12910;57.690;11.974;2022-12-29T15:18:27;98394.28;;;5.49;100.00
24825;BME280;12910;57.690;11.974;2022-12-29T15:20:59;98410.34;;;5.45;100.00
24825;BME280;12910;57.690;11.974;2022-12-29T15:23:26;98418.84;;;5.45;100.00
24825;BME280;12910;57.690;11.974;2022-12-29T15:26:02;98417.97;;;5.40;100.00
24825;BME280;12910;57.690;11.974;2022-12-29T15:28:43;98417.97;;;5.39;100.00
24825;BME280;12910;57.690;11.974;2022-12-29T15:33:46;98418.81;;;5.35;100.00